Coleville, California
Current Conditions -  °F | °C
As of 7:52 PM on Thursday 20 Nov 2014 (Local Time) from KBAN Reporting Station
Light Snow Light Snow  
Wind Chill: 30°   Ceiling: 3500
Heat Index: 34°   Visibility: NA
Dew Point: 28°   Wind: 5mph
Humidity: 79%   Direction: 250°WSW
Pressure: 29.97"   Gusts: NA
Location:  38.57°N, 119.51°W
Report Text: KBAN 210352Z AUTO 25004KT -SN BKN035 BKN050 OVC065 01/M02 A2997 RMK AO2 SNB34 SLP163 P0000 T00111022 FZRANO $
Loading
Personal Weather Stations






























Interactive Weather Map New forecast layout! Learn more

10-Day Weather Forecast

Advertisements
Track Severe Weather on mobile